Time;durP1;ratioP1;P1;durP2;ratioP2;P2;SDS_P1;SDS_P2;PMS_P1;PMS_P2;Temp;Humidity;BMP_temperature;BMP_pressure;BME280_temperature;BME280_humidity;BME280_pressure;Samples;Min_cycle;Max_cycle;Signal;HPM_P1;HPM_P2
2021/08/23 00:00:01;;;;;;;8.18;6.70;;;;;;;;;;4969927;28;20429;-96
2021/08/23 00:02:29;;;;;;;9.05;6.25;;;;;;;;;;4970597;28;20783;-94
2021/08/23 00:04:56;;;;;;;8.70;6.60;;;;;;;;;;4972906;28;20420;-96
2021/08/23 00:07:23;;;;;;;9.38;7.03;;;;;;;;;;4968381;28;20417;-96
2021/08/23 00:09:50;;;;;;;8.40;6.45;;;;;;;;;;4973287;28;20494;-96
2021/08/23 00:12:18;;;;;;;8.60;6.55;;;;;;;;;;4973422;28;20428;-96
2021/08/23 00:14:45;;;;;;;9.77;6.00;;;;;;;;;;4970413;28;20430;-96
2021/08/23 00:17:11;;;;;;;7.25;6.47;;;;;;;;;;4965956;28;21074;-96
2021/08/23 00:19:40;;;;;;;7.60;6.45;;;;;;;;;;4973618;28;20415;-96
2021/08/23 00:22:21;;;;;;;9.20;6.63;;;;;;;;;;4966588;28;20453;-96
2021/08/23 00:24:49;;;;;;;8.50;6.75;;;;;;;;;;4969542;28;20755;-96
2021/08/23 00:27:16;;;;;;;10.07;6.38;;;;;;;;;;4966109;28;20418;-96
2021/08/23 00:29:43;;;;;;;8.43;6.37;;;;;;;;;;4966183;28;20433;-96
2021/08/23 00:32:10;;;;;;;8.02;6.30;;;;;;;;;;4972624;28;20518;-96
2021/08/23 00:34:37;;;;;;;7.53;6.03;;;;;;;;;;4976248;28;20525;-96
2021/08/23 00:37:06;;;;;;;9.57;6.50;;;;;;;;;;4970793;28;20425;-96
2021/08/23 00:39:33;;;;;;;7.78;5.88;;;;;;;;;;4971018;28;20410;-96
2021/08/23 00:42:01;;;;;;;6.32;5.72;;;;;;;;;;4972569;28;20410;-96
2021/08/23 00:44:29;;;;;;;8.48;5.75;;;;;;;;;;4973139;28;20422;-96
2021/08/23 00:46:57;;;;;;;7.80;5.90;;;;;;;;;;4972936;28;20789;-96
2021/08/23 00:49:24;;;;;;;6.40;5.60;;;;;;;;;;4967946;28;20435;-96
2021/08/23 00:51:52;;;;;;;7.13;5.32;;;;;;;;;;4973513;28;20416;-96
2021/08/23 00:54:21;;;;;;;5.95;4.93;;;;;;;;;;4971160;28;20517;-96
2021/08/23 00:56:48;;;;;;;5.97;4.05;;;;;;;;;;4971291;28;20411;-96
2021/08/23 00:59:19;;;;;;;4.30;3.78;;;;;;;;;;4966352;28;20410;-96
2021/08/23 01:01:53;;;;;;;4.15;3.30;;;;;;;;;;4965661;28;20429;-96
2021/08/23 01:04:27;;;;;;;4.70;3.40;;;;;;;;;;4965238;28;20422;-95
2021/08/23 01:06:56;;;;;;;3.67;3.30;;;;;;;;;;4964404;28;20438;-96
2021/08/23 01:09:27;;;;;;;4.05;3.50;;;;;;;;;;4968346;28;20426;-95
2021/08/23 01:11:56;;;;;;;4.75;3.10;;;;;;;;;;4964246;28;20414;-96
2021/08/23 01:14:24;;;;;;;5.00;2.80;;;;;;;;;;4964274;28;20433;-96
2021/08/23 01:16:51;;;;;;;3.47;2.70;;;;;;;;;;4972458;28;20421;-96
2021/08/23 01:19:20;;;;;;;2.90;2.40;;;;;;;;;;4973617;28;20417;-96
2021/08/23 01:21:51;;;;;;;3.10;2.53;;;;;;;;;;4973665;28;20424;-96
2021/08/23 01:24:19;;;;;;;3.50;2.90;;;;;;;;;;4970470;28;20409;-96
2021/08/23 01:26:51;;;;;;;2.70;2.38;;;;;;;;;;4974160;28;20414;-96
2021/08/23 01:29:22;;;;;;;3.15;2.47;;;;;;;;;;4974159;28;20421;-96
2021/08/23 01:31:54;;;;;;;4.28;2.38;;;;;;;;;;4974529;28;20423;-96
2021/08/23 01:34:24;;;;;;;4.15;2.35;;;;;;;;;;4964874;28;20441;-95
2021/08/23 01:36:51;;;;;;;2.72;2.30;;;;;;;;;;4964841;28;20411;-96
2021/08/23 01:39:18;;;;;;;2.90;2.47;;;;;;;;;;4966971;28;20413;-96
2021/08/23 01:41:45;;;;;;;3.60;2.50;;;;;;;;;;4974074;28;20425;-96
2021/08/23 01:44:12;;;;;;;3.42;2.28;;;;;;;;;;4973673;28;20418;-96
2021/08/23 01:46:40;;;;;;;2.28;2.03;;;;;;;;;;4973670;28;20437;-96
2021/08/23 01:49:09;;;;;;;3.67;2.40;;;;;;;;;;4964927;28;21136;-96
2021/08/23 01:51:37;;;;;;;3.10;2.33;;;;;;;;;;4972962;28;20678;-96
2021/08/23 01:54:05;;;;;;;2.30;2.10;;;;;;;;;;4965016;28;21078;-96
2021/08/23 01:56:32;;;;;;;3.45;2.38;;;;;;;;;;4970925;28;20767;-95
2021/08/23 01:59:03;;;;;;;2.55;1.95;;;;;;;;;;4972471;28;20432;-96
2021/08/23 02:01:31;;;;;;;3.22;2.08;;;;;;;;;;4976489;28;20821;-96
2021/08/23 02:03:58;;;;;;;3.88;2.00;;;;;;;;;;4973122;28;20410;-96
2021/08/23 02:06:25;;;;;;;2.40;1.88;;;;;;;;;;4976968;28;20423;-96
2021/08/23 02:08:54;;;;;;;3.42;2.05;;;;;;;;;;4969541;28;20406;-96
2021/08/23 02:11:24;;;;;;;2.20;2.00;;;;;;;;;;4976135;28;20420;-96
2021/08/23 02:13:51;;;;;;;2.37;2.00;;;;;;;;;;4972340;28;20424;-96
2021/08/23 02:16:18;;;;;;;2.10;1.83;;;;;;;;;;4972999;28;20437;-96
2021/08/23 02:18:45;;;;;;;2.85;1.92;;;;;;;;;;4973629;28;20420;-96
2021/08/23 02:21:12;;;;;;;2.63;1.80;;;;;;;;;;4971268;28;20675;-96
2021/08/23 02:23:39;;;;;;;2.00;1.90;;;;;;;;;;4975348;28;20427;-96
2021/08/23 02:26:08;;;;;;;3.13;2.00;;;;;;;;;;4973923;28;20416;-96
2021/08/23 02:28:35;;;;;;;2.30;1.90;;;;;;;;;;4975495;28;20417;-96
2021/08/23 02:31:02;;;;;;;3.13;1.98;;;;;;;;;;4976565;28;20423;-96
2021/08/23 02:33:29;;;;;;;2.55;1.95;;;;;;;;;;4973778;28;20669;-96
2021/08/23 02:35:56;;;;;;;2.25;1.95;;;;;;;;;;4980230;28;20446;-96
2021/08/23 02:38:23;;;;;;;2.50;1.80;;;;;;;;;;4973160;28;20417;-96
2021/08/23 02:40:50;;;;;;;2.60;1.70;;;;;;;;;;4980909;28;20418;-96
2021/08/23 02:43:19;;;;;;;3.08;1.70;;;;;;;;;;4980999;28;20763;-96
2021/08/23 02:45:46;;;;;;;3.20;1.90;;;;;;;;;;4981220;28;20419;-96
2021/08/23 02:48:12;;;;;;;2.70;1.73;;;;;;;;;;4978353;28;20982;-96
2021/08/23 02:50:39;;;;;;;2.20;1.75;;;;;;;;;;4978457;28;20772;-95
2021/08/23 02:53:06;;;;;;;1.95;1.70;;;;;;;;;;4980494;28;20408;-95
2021/08/23 02:55:33;;;;;;;3.00;1.80;;;;;;;;;;4977705;28;20433;-96
2021/08/23 02:58:00;;;;;;;3.00;1.70;;;;;;;;;;4979404;28;20408;-96
2021/08/23 03:00:29;;;;;;;2.70;1.70;;;;;;;;;;4977430;28;20414;-96
2021/08/23 03:02:55;;;;;;;2.22;1.60;;;;;;;;;;4973692;28;20425;-96
2021/08/23 03:05:22;;;;;;;2.30;1.55;;;;;;;;;;4972898;28;20412;-95
2021/08/23 03:07:49;;;;;;;1.92;1.55;;;;;;;;;;4980446;28;20414;-96
2021/08/23 03:10:16;;;;;;;2.13;1.67;;;;;;;;;;4979029;28;20787;-96
2021/08/23 03:12:43;;;;;;;2.50;1.60;;;;;;;;;;4975664;28;20413;-96
2021/08/23 03:15:11;;;;;;;1.75;1.60;;;;;;;;;;4977599;28;20432;-96
2021/08/23 03:17:39;;;;;;;1.67;1.57;;;;;;;;;;4976501;28;20412;-96
2021/08/23 03:20:07;;;;;;;2.30;1.50;;;;;;;;;;4975851;28;20414;-95
2021/08/23 03:22:34;;;;;;;1.95;1.42;;;;;;;;;;4976692;28;20694;-96
2021/08/23 03:25:01;;;;;;;3.35;1.60;;;;;;;;;;4976684;28;20402;-96
2021/08/23 03:27:28;;;;;;;2.20;1.70;;;;;;;;;;4979541;28;20406;-96
2021/08/23 03:29:55;;;;;;;2.67;1.70;;;;;;;;;;4979192;28;20773;-96
2021/08/23 03:32:22;;;;;;;2.33;1.92;;;;;;;;;;4976279;28;20916;-96
2021/08/23 03:34:51;;;;;;;2.10;1.80;;;;;;;;;;4979098;28;20413;-95
2021/08/23 03:37:18;;;;;;;2.53;1.90;;;;;;;;;;4976214;28;20906;-96
2021/08/23 03:39:45;;;;;;;2.30;1.80;;;;;;;;;;4978225;28;20424;-96
2021/08/23 03:42:12;;;;;;;3.30;2.95;;;;;;;;;;4977172;28;20408;-96
2021/08/23 03:44:39;;;;;;;2.45;2.03;;;;;;;;;;4977365;28;20417;-96
2021/08/23 03:47:06;;;;;;;1.90;1.80;;;;;;;;;;4977501;28;20444;-96
2021/08/23 03:49:33;;;;;;;3.22;1.60;;;;;;;;;;4976399;28;20496;-96
2021/08/23 03:52:02;;;;;;;3.75;1.80;;;;;;;;;;4975343;28;20929;-96
2021/08/23 03:54:29;;;;;;;2.25;1.67;;;;;;;;;;4979164;28;20980;-95
2021/08/23 03:56:55;;;;;;;1.67;1.52;;;;;;;;;;4975356;28;20410;-95
2021/08/23 03:59:22;;;;;;;2.55;1.40;;;;;;;;;;4975979;28;20703;-96
2021/08/23 04:01:49;;;;;;;1.90;1.70;;;;;;;;;;4978620;28;20416;-96
2021/08/23 04:04:16;;;;;;;2.78;1.80;;;;;;;;;;4967822;28;20544;-96
2021/08/23 04:06:45;;;;;;;4.40;2.10;;;;;;;;;;4973604;28;20421;-95
2021/08/23 04:09:14;;;;;;;2.55;1.83;;;;;;;;;;4971740;28;20425;-96
2021/08/23 04:11:42;;;;;;;2.40;2.00;;;;;;;;;;4975220;28;20914;-95
2021/08/23 04:14:09;;;;;;;4.13;2.92;;;;;;;;;;4966589;28;20407;-96
2021/08/23 04:16:35;;;;;;;2.55;2.10;;;;;;;;;;4967243;28;20660;-96
2021/08/23 04:19:03;;;;;;;2.53;1.85;;;;;;;;;;4966227;28;20748;-96
2021/08/23 04:21:30;;;;;;;2.35;1.90;;;;;;;;;;4977590;28;20741;-96
2021/08/23 04:23:56;;;;;;;2.95;1.85;;;;;;;;;;4966989;28;20419;-96
2021/08/23 04:26:25;;;;;;;3.60;1.80;;;;;;;;;;4974347;28;20411;-96
2021/08/23 04:28:52;;;;;;;1.77;1.60;;;;;;;;;;4973473;28;20412;-96
2021/08/23 04:31:19;;;;;;;2.30;1.70;;;;;;;;;;4970915;28;20421;-96
2021/08/23 04:33:47;;;;;;;3.05;1.70;;;;;;;;;;4966983;28;20857;-96
2021/08/23 04:36:14;;;;;;;3.58;1.80;;;;;;;;;;4979299;28;20432;-95
2021/08/23 04:38:41;;;;;;;3.17;2.00;;;;;;;;;;4984500;28;20651;-95
2021/08/23 04:41:08;;;;;;;3.08;1.88;;;;;;;;;;4972344;28;20422;-96
2021/08/23 04:43:36;;;;;;;3.53;2.15;;;;;;;;;;4971153;28;20423;-95
2021/08/23 04:46:03;;;;;;;2.65;1.90;;;;;;;;;;4984738;28;20428;-96
2021/08/23 04:48:30;;;;;;;3.63;1.90;;;;;;;;;;4983362;28;20432;-96
2021/08/23 04:50:57;;;;;;;3.65;1.80;;;;;;;;;;4973315;28;20423;-96
2021/08/23 04:53:24;;;;;;;3.90;2.03;;;;;;;;;;4966228;28;20433;-96
2021/08/23 04:55:51;;;;;;;2.47;2.00;;;;;;;;;;4969743;28;20485;-96
2021/08/23 04:58:18;;;;;;;6.13;2.10;;;;;;;;;;4968490;28;20927;-96
2021/08/23 05:00:47;;;;;;;4.67;2.33;;;;;;;;;;4981988;28;20413;-95
2021/08/23 05:03:14;;;;;;;3.63;2.10;;;;;;;;;;4979696;28;20416;-95
2021/08/23 05:05:41;;;;;;;3.45;1.95;;;;;;;;;;4984102;28;20405;-96
2021/08/23 05:08:09;;;;;;;6.22;2.42;;;;;;;;;;4979581;28;20422;-96
2021/08/23 05:10:36;;;;;;;7.30;2.13;;;;;;;;;;4970889;28;20425;-95
2021/08/23 05:13:03;;;;;;;6.13;2.13;;;;;;;;;;4983897;28;20905;-95
2021/08/23 05:15:30;;;;;;;4.80;1.90;;;;;;;;;;4968835;28;20430;-95
2021/08/23 05:17:58;;;;;;;5.10;2.20;;;;;;;;;;4966020;28;20425;-95
2021/08/23 05:20:25;;;;;;;4.65;1.90;;;;;;;;;;4962344;28;20425;-96
2021/08/23 05:22:53;;;;;;;5.53;2.07;;;;;;;;;;4965801;28;20764;-96
2021/08/23 05:25:20;;;;;;;3.92;1.95;;;;;;;;;;4965691;28;20469;-96
2021/08/23 05:27:47;;;;;;;7.50;2.30;;;;;;;;;;4975666;28;20418;-96
2021/08/23 05:30:15;;;;;;;4.35;2.05;;;;;;;;;;4984742;28;20421;-96
2021/08/23 05:32:42;;;;;;;3.30;2.13;;;;;;;;;;4973021;28;20508;-96
2021/08/23 05:35:11;;;;;;;3.80;2.13;;;;;;;;;;4978941;28;20419;-96
2021/08/23 05:37:39;;;;;;;4.00;2.40;;;;;;;;;;4974240;28;20736;-96
2021/08/23 05:40:07;;;;;;;3.97;2.33;;;;;;;;;;4975272;28;20466;-96
2021/08/23 05:42:34;;;;;;;4.63;1.98;;;;;;;;;;4981580;28;20777;-96
2021/08/23 05:45:01;;;;;;;3.58;2.03;;;;;;;;;;4972764;28;20419;-96
2021/08/23 05:47:28;;;;;;;4.03;2.33;;;;;;;;;;4974338;28;20492;-96
2021/08/23 05:49:57;;;;;;;4.40;2.17;;;;;;;;;;4984844;28;20412;-96
2021/08/23 05:52:26;;;;;;;3.88;2.20;;;;;;;;;;4985121;28;20504;-96
2021/08/23 05:54:52;;;;;;;4.07;2.10;;;;;;;;;;4973688;28;20418;-96
2021/08/23 05:57:21;;;;;;;3.60;1.83;;;;;;;;;;4969501;28;20423;-96
2021/08/23 05:59:48;;;;;;;1.75;1.30;;;;;;;;;;4965118;28;20489;-95
2021/08/23 06:02:15;;;;;;;1.42;1.33;;;;;;;;;;4970387;28;20418;-96
2021/08/23 06:04:42;;;;;;;2.55;1.23;;;;;;;;;;4969680;28;20937;-95
2021/08/23 06:07:09;;;;;;;1.80;1.20;;;;;;;;;;4965070;28;20952;-96
2021/08/23 06:09:38;;;;;;;2.03;1.20;;;;;;;;;;4964803;28;20521;-96
2021/08/23 06:12:05;;;;;;;2.35;1.20;;;;;;;;;;4965242;28;20414;-96
2021/08/23 06:14:32;;;;;;;2.10;1.30;;;;;;;;;;4965639;28;20418;-96
2021/08/23 06:16:59;;;;;;;3.03;1.50;;;;;;;;;;4969178;28;20438;-96
2021/08/23 06:19:27;;;;;;;2.25;1.30;;;;;;;;;;4965993;28;20413;-96
2021/08/23 06:21:54;;;;;;;2.20;1.50;;;;;;;;;;4966394;28;20410;-96
2021/08/23 06:24:22;;;;;;;2.80;1.60;;;;;;;;;;4965783;28;20415;-95
2021/08/23 06:26:53;;;;;;;3.03;1.60;;;;;;;;;;4965920;28;20423;-96
2021/08/23 06:29:20;;;;;;;1.83;1.42;;;;;;;;;;4970117;28;20423;-96
2021/08/23 06:31:47;;;;;;;1.53;1.30;;;;;;;;;;4965179;28;20778;-96
2021/08/23 06:34:14;;;;;;;3.28;1.70;;;;;;;;;;4965075;28;20414;-96
2021/08/23 06:36:44;;;;;;;3.85;1.70;;;;;;;;;;4966694;28;20423;-96
2021/08/23 06:39:11;;;;;;;3.97;1.80;;;;;;;;;;4969208;28;20915;-96
2021/08/23 06:41:38;;;;;;;3.38;2.13;;;;;;;;;;4966329;28;20981;-96
2021/08/23 06:44:07;;;;;;;3.60;2.30;;;;;;;;;;4965760;28;20422;-96
2021/08/23 06:46:34;;;;;;;3.00;2.47;;;;;;;;;;4965762;28;20446;-96
2021/08/23 06:49:01;;;;;;;3.50;2.80;;;;;;;;;;4969013;28;20426;-96
2021/08/23 06:51:29;;;;;;;3.08;2.75;;;;;;;;;;4975213;28;20485;-96
2021/08/23 06:53:56;;;;;;;4.20;2.63;;;;;;;;;;4965473;28;20925;-96
2021/08/23 06:56:23;;;;;;;3.10;2.70;;;;;;;;;;4965475;28;20423;-96
2021/08/23 06:58:50;;;;;;;3.55;2.70;;;;;;;;;;4965029;28;20932;-96
2021/08/23 07:01:18;;;;;;;4.43;3.03;;;;;;;;;;4965569;28;20422;-96
2021/08/23 07:03:46;;;;;;;3.03;2.70;;;;;;;;;;4965711;28;20410;-95
2021/08/23 07:06:13;;;;;;;3.10;2.80;;;;;;;;;;4974055;28;20411;-96
2021/08/23 07:08:40;;;;;;;4.35;2.90;;;;;;;;;;4967228;28;20422;-95
2021/08/23 07:11:07;;;;;;;3.33;2.60;;;;;;;;;;4965256;28;20425;-96
2021/08/23 07:13:34;;;;;;;4.32;3.00;;;;;;;;;;4964880;28;20506;-96
2021/08/23 07:16:01;;;;;;;3.90;2.80;;;;;;;;;;4965465;28;20798;-96
2021/08/23 07:18:30;;;;;;;4.10;3.28;;;;;;;;;;4965509;28;20530;-96
2021/08/23 07:20:57;;;;;;;4.22;3.30;;;;;;;;;;4970326;28;20441;-96
2021/08/23 07:23:24;;;;;;;3.88;3.50;;;;;;;;;;4968570;28;20422;-96
2021/08/23 07:25:51;;;;;;;4.73;3.60;;;;;;;;;;4967951;28;20448;-96
2021/08/23 07:28:18;;;;;;;3.88;3.50;;;;;;;;;;4968232;28;20414;-96
2021/08/23 07:30:46;;;;;;;4.25;3.50;;;;;;;;;;4967649;28;20433;-96
2021/08/23 07:33:13;;;;;;;4.47;3.50;;;;;;;;;;4968259;28;20827;-96
2021/08/23 07:35:41;;;;;;;5.15;3.63;;;;;;;;;;4969368;28;20704;-96
2021/08/23 07:38:09;;;;;;;4.33;3.70;;;;;;;;;;4969262;28;20414;-96
2021/08/23 07:40:36;;;;;;;4.95;3.60;;;;;;;;;;4968732;28;20434;-96
2021/08/23 07:43:03;;;;;;;4.03;3.38;;;;;;;;;;4969008;28;20428;-96
2021/08/23 07:45:30;;;;;;;3.78;3.38;;;;;;;;;;4971318;28;20418;-96
2021/08/23 07:47:56;;;;;;;4.78;3.63;;;;;;;;;;4964981;28;20414;-96
2021/08/23 07:50:24;;;;;;;6.13;3.97;;;;;;;;;;4967231;28;20421;-96
2021/08/23 07:52:52;;;;;;;5.28;3.72;;;;;;;;;;4967858;28;20444;-96
2021/08/23 07:55:19;;;;;;;4.50;4.00;;;;;;;;;;4969211;28;20424;-96
2021/08/23 07:57:48;;;;;;;4.60;4.05;;;;;;;;;;4968826;28;20426;-96
2021/08/23 08:00:17;;;;;;;6.00;4.20;;;;;;;;;;4969355;28;20918;-96
2021/08/23 08:02:44;;;;;;;7.15;4.35;;;;;;;;;;4971631;28;20418;-96
2021/08/23 08:05:12;;;;;;;4.50;4.10;;;;;;;;;;4968577;28;20425;-96
2021/08/23 08:07:39;;;;;;;4.63;4.15;;;;;;;;;;4968914;28;20878;-96
2021/08/23 08:10:10;;;;;;;5.57;4.07;;;;;;;;;;4968305;28;20890;-96
2021/08/23 08:12:37;;;;;;;4.90;3.92;;;;;;;;;;4969640;28;20419;-96
2021/08/23 08:15:05;;;;;;;6.10;4.00;;;;;;;;;;4969286;28;20429;-95
2021/08/23 08:17:32;;;;;;;5.25;3.67;;;;;;;;;;4969300;28;20436;-96
2021/08/23 08:19:59;;;;;;;4.68;3.70;;;;;;;;;;4969860;28;20418;-96
2021/08/23 08:22:26;;;;;;;7.13;3.60;;;;;;;;;;4968236;28;20418;-96
2021/08/23 08:24:53;;;;;;;4.65;3.60;;;;;;;;;;4970883;28;20422;-96
2021/08/23 08:27:21;;;;;;;4.55;3.60;;;;;;;;;;4966442;28;20437;-95
2021/08/23 08:29:48;;;;;;;5.38;3.85;;;;;;;;;;4966686;28;20422;-96
2021/08/23 08:32:15;;;;;;;4.20;2.95;;;;;;;;;;4967889;28;20978;-96
2021/08/23 08:34:42;;;;;;;3.13;2.70;;;;;;;;;;4969495;28;20497;-96
2021/08/23 08:37:09;;;;;;;4.83;3.00;;;;;;;;;;4968717;28;20453;-96
2021/08/23 08:39:42;;;;;;;4.05;2.83;;;;;;;;;;4968842;28;20415;-96
2021/08/23 08:42:09;;;;;;;5.22;3.10;;;;;;;;;;4969328;28;20960;-96
2021/08/23 08:44:37;;;;;;;3.55;2.65;;;;;;;;;;4972077;28;20419;-96
2021/08/23 08:47:05;;;;;;;4.05;2.50;;;;;;;;;;4968791;28;20422;-96
2021/08/23 08:49:36;;;;;;;5.03;2.58;;;;;;;;;;4971215;28;20421;-96
2021/08/23 08:52:04;;;;;;;2.88;2.42;;;;;;;;;;4968043;28;20473;-96
2021/08/23 08:54:31;;;;;;;3.63;2.60;;;;;;;;;;4966067;28;20477;-96
2021/08/23 08:57:01;;;;;;;3.90;2.20;;;;;;;;;;4969009;28;20426;-96
2021/08/23 08:59:28;;;;;;;4.07;2.15;;;;;;;;;;4965383;28;20473;-96
2021/08/23 09:01:57;;;;;;;3.95;2.00;;;;;;;;;;4966775;28;20410;-96
2021/08/23 09:04:28;;;;;;;2.35;2.15;;;;;;;;;;4964910;28;20783;-95
2021/08/23 09:06:58;;;;;;;2.47;1.98;;;;;;;;;;4965288;28;20419;-96
2021/08/23 09:09:25;;;;;;;3.03;2.00;;;;;;;;;;4969818;28;20413;-96
2021/08/23 09:11:56;;;;;;;2.58;2.10;;;;;;;;;;4965096;28;20418;-96
2021/08/23 09:14:23;;;;;;;2.05;1.73;;;;;;;;;;4964579;28;20967;-96
2021/08/23 09:16:51;;;;;;;2.50;1.83;;;;;;;;;;4969175;28;20412;-96
2021/08/23 09:19:27;;;;;;;2.45;1.83;;;;;;;;;;4969675;28;21161;-96
2021/08/23 09:22:02;;;;;;;2.47;1.90;;;;;;;;;;4964470;28;21345;-96
2021/08/23 09:24:33;;;;;;;2.92;2.00;;;;;;;;;;4968958;28;20422;-96
2021/08/23 09:27:08;;;;;;;2.17;1.73;;;;;;;;;;4969404;28;20418;-96
2021/08/23 09:29:59;;;;;;;2.22;1.80;;;;;;;;;;4965353;28;20420;-96
2021/08/23 09:32:27;;;;;;;2.20;1.60;;;;;;;;;;4965288;28;20421;-96
2021/08/23 09:34:56;;;;;;;2.10;1.70;;;;;;;;;;4964278;28;20602;-96
2021/08/23 09:37:25;;;;;;;4.00;1.70;;;;;;;;;;4965074;28;20474;-96
2021/08/23 09:39:53;;;;;;;2.00;1.80;;;;;;;;;;4970065;28;20406;-96
2021/08/23 09:42:22;;;;;;;2.40;1.20;;;;;;;;;;4965329;28;20918;-96
2021/08/23 09:44:50;;;;;;;2.63;1.15;;;;;;;;;;4964921;28;20414;-96
2021/08/23 09:47:18;;;;;;;2.17;1.30;;;;;;;;;;4965874;28;20426;-95
2021/08/23 09:49:47;;;;;;;1.63;1.33;;;;;;;;;;4969889;28;20425;-96
2021/08/23 09:52:22;;;;;;;1.30;1.20;;;;;;;;;;4997837;23;20720;-92
2021/08/23 09:55:01;;;;;;;2.78;1.38;;;;;;;;;;4988947;28;20414;-91
2021/08/23 09:57:28;;;;;;;2.28;1.30;;;;;;;;;;4982881;28;20421;-92
2021/08/23 09:59:58;;;;;;;2.67;1.40;;;;;;;;;;4982656;28;20420;-90
2021/08/23 10:02:27;;;;;;;2.25;1.40;;;;;;;;;;4983029;28;20411;-89
2021/08/23 10:04:55;;;;;;;2.50;1.08;;;;;;;;;;4983192;28;20423;-91
2021/08/23 10:07:27;;;;;;;2.00;0.90;;;;;;;;;;4989015;28;20405;-90
2021/08/23 10:09:54;;;;;;;2.00;1.20;;;;;;;;;;4982218;28;20413;-89
2021/08/23 10:12:22;;;;;;;1.65;1.10;;;;;;;;;;4987591;28;20408;-91
2021/08/23 10:14:49;;;;;;;1.38;1.23;;;;;;;;;;4982892;28;20886;-91
2021/08/23 10:17:15;;;;;;;1.55;1.02;;;;;;;;;;4982948;28;20824;-91
2021/08/23 10:19:43;;;;;;;2.67;1.00;;;;;;;;;;4982862;28;20412;-90
2021/08/23 10:22:13;;;;;;;2.43;1.10;;;;;;;;;;4983480;28;20495;-90
2021/08/23 10:24:42;;;;;;;2.08;1.10;;;;;;;;;;4984571;28;20777;-90
2021/08/23 10:27:09;;;;;;;2.22;1.30;;;;;;;;;;4982902;28;20409;-90
2021/08/23 10:29:41;;;;;;;1.25;1.10;;;;;;;;;;4983198;28;20553;-91
2021/08/23 10:32:10;;;;;;;1.98;1.30;;;;;;;;;;4985991;28;20920;-90
2021/08/23 10:34:38;;;;;;;2.47;1.20;;;;;;;;;;4987459;28;20452;-89
2021/08/23 10:37:16;;;;;;;1.23;1.13;;;;;;;;;;4988703;28;20841;-91
2021/08/23 10:39:44;;;;;;;1.02;0.93;;;;;;;;;;4987540;28;20710;-90
2021/08/23 10:42:14;;;;;;;1.30;1.00;;;;;;;;;;4989784;28;20449;-91
2021/08/23 10:44:41;;;;;;;1.92;1.20;;;;;;;;;;4988616;28;20407;-91
2021/08/23 10:47:10;;;;;;;1.30;1.20;;;;;;;;;;4986939;28;20408;-90
2021/08/23 10:49:44;;;;;;;1.85;1.20;;;;;;;;;;4982773;28;20405;-90
2021/08/23 10:52:13;;;;;;;1.33;1.23;;;;;;;;;;4985194;28;20416;-90
2021/08/23 10:54:41;;;;;;;1.83;1.27;;;;;;;;;;4983192;28;20408;-90
2021/08/23 10:57:12;;;;;;;1.67;1.33;;;;;;;;;;4990414;28;20419;-90
2021/08/23 10:59:41;;;;;;;1.40;1.30;;;;;;;;;;4990612;28;20404;-90
2021/08/23 11:02:11;;;;;;;1.70;1.20;;;;;;;;;;4986272;28;20408;-91
2021/08/23 11:04:42;;;;;;;3.92;1.58;;;;;;;;;;4986145;28;20520;-92
2021/08/23 11:07:10;;;;;;;2.05;1.30;;;;;;;;;;4986387;28;20408;-91
2021/08/23 11:09:39;;;;;;;1.45;1.33;;;;;;;;;;4987722;28;20488;-92
2021/08/23 11:12:10;;;;;;;1.88;1.50;;;;;;;;;;4990310;28;20761;-91
2021/08/23 11:14:48;;;;;;;2.38;1.50;;;;;;;;;;4990368;28;20417;-91
2021/08/23 11:17:31;;;;;;;2.78;1.45;;;;;;;;;;4989804;28;20706;-91
2021/08/23 11:19:59;;;;;;;2.45;1.45;;;;;;;;;;4985407;28;20443;-91
2021/08/23 11:22:26;;;;;;;2.70;1.40;;;;;;;;;;4989651;28;20411;-91
2021/08/23 11:24:53;;;;;;;2.08;1.40;;;;;;;;;;4987469;28;20415;-91
2021/08/23 11:27:23;;;;;;;3.03;1.40;;;;;;;;;;4992789;28;20403;-93
2021/08/23 11:29:53;;;;;;;2.05;1.35;;;;;;;;;;4994773;28;20418;-92
2021/08/23 11:32:25;;;;;;;1.70;1.25;;;;;;;;;;4986120;28;20479;-92
2021/08/23 11:34:53;;;;;;;1.90;1.40;;;;;;;;;;4985675;28;20412;-91
2021/08/23 11:37:24;;;;;;;2.08;1.42;;;;;;;;;;4991634;28;20414;-92
2021/08/23 11:40:02;;;;;;;2.08;1.45;;;;;;;;;;4992597;28;20419;-92
2021/08/23 11:42:30;;;;;;;2.63;1.10;;;;;;;;;;4984883;28;20417;-90
2021/08/23 11:44:58;;;;;;;1.45;1.20;;;;;;;;;;4985107;28;20417;-90
2021/08/23 11:47:34;;;;;;;1.30;1.20;;;;;;;;;;4985118;28;20765;-90
2021/08/23 11:50:03;;;;;;;1.50;1.10;;;;;;;;;;4985616;28;20794;-91
2021/08/23 11:52:30;;;;;;;1.90;1.10;;;;;;;;;;4991525;28;20422;-91
2021/08/23 11:54:58;;;;;;;2.00;1.20;;;;;;;;;;4986460;28;20852;-91
2021/08/23 11:57:27;;;;;;;1.85;1.15;;;;;;;;;;4984980;28;20511;-92
2021/08/23 11:59:59;;;;;;;2.33;1.20;;;;;;;;;;4984017;28;20421;-91
2021/08/23 12:02:29;;;;;;;3.60;1.20;;;;;;;;;;4989874;28;20411;-91
2021/08/23 12:05:07;;;;;;;3.22;1.00;;;;;;;;;;4984010;28;20445;-90
2021/08/23 12:07:42;;;;;;;1.63;0.82;;;;;;;;;;4986404;28;20413;-92
2021/08/23 12:10:10;;;;;;;1.73;1.00;;;;;;;;;;4990991;28;20409;-89
2021/08/23 12:12:37;;;;;;;2.20;0.95;;;;;;;;;;4988399;28;20424;-92
2021/08/23 12:15:07;;;;;;;2.38;1.10;;;;;;;;;;4985140;28;20801;-92
2021/08/23 12:17:34;;;;;;;2.03;0.77;;;;;;;;;;4985212;28;20967;-90
2021/08/23 12:20:10;;;;;;;3.03;0.80;;;;;;;;;;4988625;28;20419;-91
2021/08/23 12:22:37;;;;;;;1.30;0.85;;;;;;;;;;4990990;28;20424;-91
2021/08/23 12:25:05;;;;;;;1.73;0.63;;;;;;;;;;4987431;28;20416;-91
2021/08/23 12:27:31;;;;;;;2.60;0.75;;;;;;;;;;4984756;28;20432;-91
2021/08/23 12:30:00;;;;;;;2.45;0.80;;;;;;;;;;4984772;28;20412;-91
2021/08/23 12:32:34;;;;;;;1.10;0.50;;;;;;;;;;4984457;28;20728;-91
2021/08/23 12:35:01;;;;;;;1.40;0.50;;;;;;;;;;4983975;28;20857;-92
2021/08/23 12:37:30;;;;;;;1.35;0.50;;;;;;;;;;4985415;28;20416;-91
2021/08/23 12:39:58;;;;;;;1.03;0.60;;;;;;;;;;4986595;28;20487;-91
2021/08/23 12:42:25;;;;;;;1.30;0.57;;;;;;;;;;4987787;28;20419;-90
2021/08/23 12:44:52;;;;;;;0.60;0.50;;;;;;;;;;4992052;28;20438;-91
2021/08/23 12:47:19;;;;;;;0.60;0.52;;;;;;;;;;4984524;28;20661;-92
2021/08/23 12:49:49;;;;;;;1.38;0.50;;;;;;;;;;4984756;28;20419;-91
2021/08/23 12:52:16;;;;;;;0.85;0.50;;;;;;;;;;4987858;28;20413;-91
2021/08/23 12:54:43;;;;;;;1.70;0.52;;;;;;;;;;4993996;28;20726;-91
2021/08/23 12:57:10;;;;;;;1.65;0.40;;;;;;;;;;4986268;28;20401;-91
2021/08/23 12:59:37;;;;;;;1.75;0.70;;;;;;;;;;4990257;28;20420;-91
2021/08/23 13:02:06;;;;;;;1.00;0.60;;;;;;;;;;4991733;28;20412;-91
2021/08/23 13:04:33;;;;;;;0.80;0.60;;;;;;;;;;4986807;28;20421;-89
2021/08/23 13:07:01;;;;;;;1.73;0.82;;;;;;;;;;4984492;28;20814;-91
2021/08/23 13:09:28;;;;;;;0.60;0.60;;;;;;;;;;4984724;28;20881;-91
2021/08/23 13:11:55;;;;;;;0.87;0.70;;;;;;;;;;4986516;28;20415;-91
2021/08/23 13:14:22;;;;;;;1.40;0.55;;;;;;;;;;4992138;28;20412;-92
2021/08/23 13:16:48;;;;;;;1.25;0.50;;;;;;;;;;4984353;28;20413;-91
2021/08/23 13:19:15;;;;;;;0.95;0.60;;;;;;;;;;4983585;28;20420;-91
2021/08/23 13:21:42;;;;;;;1.23;0.70;;;;;;;;;;4984283;28;20416;-91
2021/08/23 13:24:10;;;;;;;1.40;0.50;;;;;;;;;;4987766;28;20758;-91
2021/08/23 13:26:38;;;;;;;0.73;0.60;;;;;;;;;;4985362;28;20405;-92
2021/08/23 13:29:05;;;;;;;1.10;0.50;;;;;;;;;;4994352;28;20473;-92
2021/08/23 13:31:33;;;;;;;1.27;0.70;;;;;;;;;;4988438;28;20418;-91
2021/08/23 13:34:00;;;;;;;1.05;0.60;;;;;;;;;;4992420;28;20518;-91
2021/08/23 13:36:27;;;;;;;0.90;0.70;;;;;;;;;;4989762;28;20416;-91
2021/08/23 13:38:54;;;;;;;2.00;0.60;;;;;;;;;;4986068;28;20423;-91
2021/08/23 13:41:22;;;;;;;1.00;0.60;;;;;;;;;;4994466;28;20423;-92
2021/08/23 13:43:49;;;;;;;1.20;0.50;;;;;;;;;;4993269;28;20426;-91
2021/08/23 13:46:17;;;;;;;0.60;0.60;;;;;;;;;;4993950;28;20404;-91
2021/08/23 13:48:44;;;;;;;0.63;0.50;;;;;;;;;;4993850;28;20417;-91
2021/08/23 13:51:11;;;;;;;1.08;0.57;;;;;;;;;;4985261;28;20425;-90
2021/08/23 13:53:37;;;;;;;1.45;0.52;;;;;;;;;;4983473;28;20405;-91
2021/08/23 13:56:05;;;;;;;0.65;0.50;;;;;;;;;;4983726;28;20927;-91
2021/08/23 13:58:34;;;;;;;0.90;0.40;;;;;;;;;;4983720;28;20900;-91
2021/08/23 14:01:02;;;;;;;1.40;0.60;;;;;;;;;;4983885;28;21002;-92
2021/08/23 14:03:29;;;;;;;1.80;0.60;;;;;;;;;;4989794;28;20410;-91
2021/08/23 14:05:56;;;;;;;1.50;0.80;;;;;;;;;;4983513;28;20409;-91
2021/08/23 14:08:23;;;;;;;1.70;0.50;;;;;;;;;;4983589;28;20411;-91
2021/08/23 14:10:50;;;;;;;1.70;0.65;;;;;;;;;;4983551;28;20421;-91
2021/08/23 14:13:17;;;;;;;3.75;0.70;;;;;;;;;;4982911;28;20417;-91
2021/08/23 14:15:45;;;;;;;1.55;0.50;;;;;;;;;;4991929;28;20409;-91
2021/08/23 14:18:12;;;;;;;2.55;0.73;;;;;;;;;;4984908;28;20427;-90
2021/08/23 14:20:39;;;;;;;1.25;0.50;;;;;;;;;;4983705;28;20420;-91
2021/08/23 14:23:06;;;;;;;2.50;0.80;;;;;;;;;;4983422;28;20420;-91
2021/08/23 14:25:33;;;;;;;0.97;0.70;;;;;;;;;;4983564;28;20769;-91
2021/08/23 14:28:00;;;;;;;2.20;0.70;;;;;;;;;;4983169;28;20417;-91
2021/08/23 14:30:27;;;;;;;1.40;0.70;;;;;;;;;;4985511;28;20405;-92
2021/08/23 14:32:55;;;;;;;1.75;0.90;;;;;;;;;;4986646;28;20411;-91
2021/08/23 14:35:22;;;;;;;0.85;0.70;;;;;;;;;;4987260;28;20896;-91
2021/08/23 14:37:49;;;;;;;1.55;0.80;;;;;;;;;;4987500;28;20416;-91
2021/08/23 14:40:16;;;;;;;2.13;0.80;;;;;;;;;;4986760;28;20428;-91
2021/08/23 14:42:42;;;;;;;0.80;0.68;;;;;;;;;;4987118;28;20766;-90
2021/08/23 14:45:10;;;;;;;1.00;0.80;;;;;;;;;;4987412;28;20405;-91
2021/08/23 14:47:38;;;;;;;2.20;0.60;;;;;;;;;;4992616;28;20429;-93